sensor_id;sensor_type;location;lat;lon;timestamp;P1;durP1;ratioP1;P2;durP2;ratioP2
54191;SDS011;40101;53.002;6.488;2022-07-25T00:00:11;3.45;;;2.03;;
54191;SDS011;40101;53.002;6.488;2022-07-25T00:02:38;3.03;;;1.98;;
54191;SDS011;40101;53.002;6.488;2022-07-25T00:05:04;2.58;;;1.63;;
54191;SDS011;40101;53.002;6.488;2022-07-25T00:07:30;3.13;;;2.10;;
54191;SDS011;40101;53.002;6.488;2022-07-25T00:09:56;2.00;;;1.80;;
54191;SDS011;40101;53.002;6.488;2022-07-25T00:12:21;2.67;;;2.00;;
54191;SDS011;40101;53.002;6.488;2022-07-25T00:14:47;2.13;;;1.92;;
54191;SDS011;40101;53.002;6.488;2022-07-25T00:17:13;3.90;;;2.42;;
54191;SDS011;40101;53.002;6.488;2022-07-25T00:19:39;3.80;;;2.28;;
54191;SDS011;40101;53.002;6.488;2022-07-25T00:22:04;2.88;;;2.22;;
54191;SDS011;40101;53.002;6.488;2022-07-25T00:24:30;3.28;;;2.45;;
54191;SDS011;40101;53.002;6.488;2022-07-25T00:26:56;4.15;;;2.40;;
54191;SDS011;40101;53.002;6.488;2022-07-25T00:29:22;5.20;;;2.70;;
54191;SDS011;40101;53.002;6.488;2022-07-25T00:31:47;3.47;;;2.50;;
54191;SDS011;40101;53.002;6.488;2022-07-25T00:34:13;2.75;;;2.40;;
54191;SDS011;40101;53.002;6.488;2022-07-25T00:36:39;3.55;;;2.83;;
54191;SDS011;40101;53.002;6.488;2022-07-25T00:39:05;3.30;;;2.78;;
54191;SDS011;40101;53.002;6.488;2022-07-25T00:41:30;3.15;;;2.70;;
54191;SDS011;40101;53.002;6.488;2022-07-25T00:43:56;4.00;;;2.58;;
54191;SDS011;40101;53.002;6.488;2022-07-25T00:46:22;3.15;;;2.83;;
54191;SDS011;40101;53.002;6.488;2022-07-25T00:48:48;4.05;;;3.00;;
54191;SDS011;40101;53.002;6.488;2022-07-25T00:51:14;5.25;;;3.05;;
54191;SDS011;40101;53.002;6.488;2022-07-25T00:53:40;3.50;;;3.20;;
54191;SDS011;40101;53.002;6.488;2022-07-25T00:56:06;5.00;;;3.70;;
54191;SDS011;40101;53.002;6.488;2022-07-25T00:58:33;5.97;;;3.40;;
54191;SDS011;40101;53.002;6.488;2022-07-25T01:00:59;5.93;;;3.60;;
54191;SDS011;40101;53.002;6.488;2022-07-25T01:03:25;4.85;;;3.75;;
54191;SDS011;40101;53.002;6.488;2022-07-25T01:05:51;4.93;;;4.30;;
54191;SDS011;40101;53.002;6.488;2022-07-25T01:08:18;5.75;;;3.92;;
54191;SDS011;40101;53.002;6.488;2022-07-25T01:10:45;6.07;;;3.90;;
54191;SDS011;40101;53.002;6.488;2022-07-25T01:13:12;5.05;;;4.43;;
54191;SDS011;40101;53.002;6.488;2022-07-25T01:15:38;4.72;;;4.20;;
54191;SDS011;40101;53.002;6.488;2022-07-25T01:18:04;4.95;;;4.10;;
54191;SDS011;40101;53.002;6.488;2022-07-25T01:20:30;6.28;;;4.55;;
54191;SDS011;40101;53.002;6.488;2022-07-25T01:22:56;5.60;;;4.47;;
54191;SDS011;40101;53.002;6.488;2022-07-25T01:25:23;6.88;;;4.85;;
54191;SDS011;40101;53.002;6.488;2022-07-25T01:27:49;7.10;;;4.60;;
54191;SDS011;40101;53.002;6.488;2022-07-25T01:30:17;4.78;;;4.25;;
54191;SDS011;40101;53.002;6.488;2022-07-25T01:32:44;5.45;;;4.95;;
54191;SDS011;40101;53.002;6.488;2022-07-25T01:35:10;5.28;;;4.47;;
54191;SDS011;40101;53.002;6.488;2022-07-25T01:37:36;7.15;;;4.50;;
54191;SDS011;40101;53.002;6.488;2022-07-25T01:40:03;7.10;;;4.50;;
54191;SDS011;40101;53.002;6.488;2022-07-25T01:42:29;5.53;;;4.95;;
54191;SDS011;40101;53.002;6.488;2022-07-25T01:44:55;5.55;;;4.65;;
54191;SDS011;40101;53.002;6.488;2022-07-25T01:47:21;7.80;;;5.15;;
54191;SDS011;40101;53.002;6.488;2022-07-25T01:49:47;6.30;;;5.38;;
54191;SDS011;40101;53.002;6.488;2022-07-25T01:52:12;6.25;;;5.38;;
54191;SDS011;40101;53.002;6.488;2022-07-25T01:54:38;5.90;;;5.40;;
54191;SDS011;40101;53.002;6.488;2022-07-25T01:57:05;7.03;;;5.68;;
54191;SDS011;40101;53.002;6.488;2022-07-25T01:59:31;7.00;;;5.95;;
54191;SDS011;40101;53.002;6.488;2022-07-25T02:01:57;6.60;;;5.90;;
54191;SDS011;40101;53.002;6.488;2022-07-25T02:04:22;7.85;;;5.68;;
54191;SDS011;40101;53.002;6.488;2022-07-25T02:06:48;9.18;;;5.68;;
54191;SDS011;40101;53.002;6.488;2022-07-25T02:09:14;9.73;;;6.55;;
54191;SDS011;40101;53.002;6.488;2022-07-25T02:11:40;7.47;;;6.03;;
54191;SDS011;40101;53.002;6.488;2022-07-25T02:14:05;6.97;;;6.22;;
54191;SDS011;40101;53.002;6.488;2022-07-25T02:16:31;8.68;;;6.35;;
54191;SDS011;40101;53.002;6.488;2022-07-25T02:18:57;6.70;;;6.10;;
54191;SDS011;40101;53.002;6.488;2022-07-25T02:21:23;18.80;;;6.85;;
54191;SDS011;40101;53.002;6.488;2022-07-25T02:23:50;6.25;;;5.65;;
54191;SDS011;40101;53.002;6.488;2022-07-25T02:26:15;7.30;;;5.85;;
54191;SDS011;40101;53.002;6.488;2022-07-25T02:28:41;7.72;;;5.75;;
54191;SDS011;40101;53.002;6.488;2022-07-25T02:31:07;6.28;;;5.30;;
54191;SDS011;40101;53.002;6.488;2022-07-25T02:33:33;8.45;;;6.88;;
54191;SDS011;40101;53.002;6.488;2022-07-25T02:35:58;7.03;;;6.28;;
54191;SDS011;40101;53.002;6.488;2022-07-25T02:38:24;9.32;;;6.25;;
54191;SDS011;40101;53.002;6.488;2022-07-25T02:40:51;7.53;;;6.57;;
54191;SDS011;40101;53.002;6.488;2022-07-25T02:43:18;7.63;;;6.43;;
54191;SDS011;40101;53.002;6.488;2022-07-25T02:45:44;7.40;;;6.45;;
54191;SDS011;40101;53.002;6.488;2022-07-25T02:48:10;5.75;;;4.32;;
54191;SDS011;40101;53.002;6.488;2022-07-25T02:50:36;5.93;;;5.32;;
54191;SDS011;40101;53.002;6.488;2022-07-25T02:53:02;7.25;;;6.47;;
54191;SDS011;40101;53.002;6.488;2022-07-25T02:55:28;7.70;;;6.38;;
54191;SDS011;40101;53.002;6.488;2022-07-25T02:57:54;6.78;;;6.05;;
54191;SDS011;40101;53.002;6.488;2022-07-25T03:00:20;9.70;;;6.88;;
54191;SDS011;40101;53.002;6.488;2022-07-25T03:02:46;9.45;;;6.43;;
54191;SDS011;40101;53.002;6.488;2022-07-25T03:05:13;9.27;;;7.38;;
54191;SDS011;40101;53.002;6.488;2022-07-25T03:07:39;8.30;;;7.40;;
54191;SDS011;40101;53.002;6.488;2022-07-25T03:10:06;10.68;;;6.70;;
54191;SDS011;40101;53.002;6.488;2022-07-25T03:12:33;8.55;;;7.15;;
54191;SDS011;40101;53.002;6.488;2022-07-25T03:14:58;9.60;;;8.18;;
54191;SDS011;40101;53.002;6.488;2022-07-25T03:17:25;8.85;;;7.97;;
54191;SDS011;40101;53.002;6.488;2022-07-25T03:19:52;9.52;;;8.63;;
54191;SDS011;40101;53.002;6.488;2022-07-25T03:22:18;9.80;;;7.38;;
54191;SDS011;40101;53.002;6.488;2022-07-25T03:24:44;9.23;;;7.05;;
54191;SDS011;40101;53.002;6.488;2022-07-25T03:27:10;8.07;;;7.28;;
54191;SDS011;40101;53.002;6.488;2022-07-25T03:29:36;12.32;;;8.63;;
54191;SDS011;40101;53.002;6.488;2022-07-25T03:32:01;13.18;;;9.05;;
54191;SDS011;40101;53.002;6.488;2022-07-25T03:34:28;7.85;;;7.15;;
54191;SDS011;40101;53.002;6.488;2022-07-25T03:36:54;9.02;;;7.60;;
54191;SDS011;40101;53.002;6.488;2022-07-25T03:39:19;10.30;;;8.77;;
54191;SDS011;40101;53.002;6.488;2022-07-25T03:41:45;9.43;;;8.48;;
54191;SDS011;40101;53.002;6.488;2022-07-25T03:44:11;12.93;;;6.57;;
54191;SDS011;40101;53.002;6.488;2022-07-25T03:46:37;9.82;;;7.22;;
54191;SDS011;40101;53.002;6.488;2022-07-25T03:49:03;10.30;;;8.07;;
54191;SDS011;40101;53.002;6.488;2022-07-25T03:51:29;13.45;;;10.70;;
54191;SDS011;40101;53.002;6.488;2022-07-25T03:53:54;11.65;;;9.27;;
54191;SDS011;40101;53.002;6.488;2022-07-25T03:56:26;7.95;;;6.97;;
54191;SDS011;40101;53.002;6.488;2022-07-25T03:58:56;7.53;;;6.75;;
54191;SDS011;40101;53.002;6.488;2022-07-25T04:01:21;12.07;;;9.43;;
54191;SDS011;40101;53.002;6.488;2022-07-25T04:03:47;11.23;;;10.20;;
54191;SDS011;40101;53.002;6.488;2022-07-25T04:06:12;11.00;;;9.90;;
54191;SDS011;40101;53.002;6.488;2022-07-25T04:08:38;20.30;;;10.40;;
54191;SDS011;40101;53.002;6.488;2022-07-25T04:11:04;11.55;;;10.32;;
54191;SDS011;40101;53.002;6.488;2022-07-25T04:13:30;14.43;;;10.45;;
54191;SDS011;40101;53.002;6.488;2022-07-25T04:15:55;12.50;;;9.60;;
54191;SDS011;40101;53.002;6.488;2022-07-25T04:18:21;13.27;;;11.05;;
54191;SDS011;40101;53.002;6.488;2022-07-25T04:20:47;11.32;;;10.07;;
54191;SDS011;40101;53.002;6.488;2022-07-25T04:23:12;11.20;;;10.13;;
54191;SDS011;40101;53.002;6.488;2022-07-25T04:25:38;12.13;;;10.95;;
54191;SDS011;40101;53.002;6.488;2022-07-25T04:28:04;12.52;;;11.05;;
54191;SDS011;40101;53.002;6.488;2022-07-25T04:30:29;11.52;;;10.25;;
54191;SDS011;40101;53.002;6.488;2022-07-25T04:32:55;11.65;;;9.85;;
54191;SDS011;40101;53.002;6.488;2022-07-25T04:35:20;10.77;;;9.68;;
54191;SDS011;40101;53.002;6.488;2022-07-25T04:37:46;13.82;;;10.30;;
54191;SDS011;40101;53.002;6.488;2022-07-25T04:40:12;11.30;;;9.85;;
54191;SDS011;40101;53.002;6.488;2022-07-25T04:42:38;11.95;;;10.73;;
54191;SDS011;40101;53.002;6.488;2022-07-25T04:45:04;12.13;;;10.82;;
54191;SDS011;40101;53.002;6.488;2022-07-25T04:47:30;13.85;;;11.15;;
54191;SDS011;40101;53.002;6.488;2022-07-25T04:49:55;11.73;;;10.43;;
54191;SDS011;40101;53.002;6.488;2022-07-25T04:52:21;13.57;;;10.40;;
54191;SDS011;40101;53.002;6.488;2022-07-25T04:54:47;13.77;;;10.27;;
54191;SDS011;40101;53.002;6.488;2022-07-25T04:57:12;15.32;;;11.48;;
54191;SDS011;40101;53.002;6.488;2022-07-25T04:59:38;12.73;;;11.02;;
54191;SDS011;40101;53.002;6.488;2022-07-25T05:02:03;11.90;;;10.68;;
54191;SDS011;40101;53.002;6.488;2022-07-25T05:04:29;13.07;;;11.38;;
54191;SDS011;40101;53.002;6.488;2022-07-25T05:06:55;11.80;;;10.68;;
54191;SDS011;40101;53.002;6.488;2022-07-25T05:09:20;12.65;;;11.00;;
54191;SDS011;40101;53.002;6.488;2022-07-25T05:11:46;11.60;;;10.40;;
54191;SDS011;40101;53.002;6.488;2022-07-25T05:14:11;12.05;;;10.85;;
54191;SDS011;40101;53.002;6.488;2022-07-25T05:16:37;12.52;;;11.18;;
54191;SDS011;40101;53.002;6.488;2022-07-25T05:19:03;13.13;;;11.82;;
54191;SDS011;40101;53.002;6.488;2022-07-25T05:21:28;14.43;;;12.05;;
54191;SDS011;40101;53.002;6.488;2022-07-25T05:23:54;13.13;;;11.20;;
54191;SDS011;40101;53.002;6.488;2022-07-25T05:26:20;16.38;;;11.18;;
54191;SDS011;40101;53.002;6.488;2022-07-25T05:28:45;12.15;;;10.80;;
54191;SDS011;40101;53.002;6.488;2022-07-25T05:31:11;14.68;;;11.02;;
54191;SDS011;40101;53.002;6.488;2022-07-25T05:33:37;14.38;;;10.80;;
54191;SDS011;40101;53.002;6.488;2022-07-25T05:36:03;14.02;;;11.70;;
54191;SDS011;40101;53.002;6.488;2022-07-25T05:38:30;13.98;;;11.48;;
54191;SDS011;40101;53.002;6.488;2022-07-25T05:40:55;11.23;;;10.13;;
54191;SDS011;40101;53.002;6.488;2022-07-25T05:43:21;12.15;;;10.95;;
54191;SDS011;40101;53.002;6.488;2022-07-25T05:45:47;15.35;;;12.10;;
54191;SDS011;40101;53.002;6.488;2022-07-25T05:48:13;11.77;;;10.57;;
54191;SDS011;40101;53.002;6.488;2022-07-25T05:50:39;12.65;;;11.25;;
54191;SDS011;40101;53.002;6.488;2022-07-25T05:53:05;11.70;;;10.55;;
54191;SDS011;40101;53.002;6.488;2022-07-25T05:55:31;10.73;;;9.73;;
54191;SDS011;40101;53.002;6.488;2022-07-25T05:57:57;13.35;;;9.90;;
54191;SDS011;40101;53.002;6.488;2022-07-25T06:00:23;11.75;;;10.50;;
54191;SDS011;40101;53.002;6.488;2022-07-25T06:02:49;10.95;;;9.85;;
54191;SDS011;40101;53.002;6.488;2022-07-25T06:05:15;16.40;;;10.52;;
54191;SDS011;40101;53.002;6.488;2022-07-25T06:07:40;10.25;;;8.90;;
54191;SDS011;40101;53.002;6.488;2022-07-25T06:10:06;14.95;;;10.00;;
54191;SDS011;40101;53.002;6.488;2022-07-25T06:12:32;11.77;;;9.50;;
54191;SDS011;40101;53.002;6.488;2022-07-25T06:14:58;11.48;;;10.30;;
54191;SDS011;40101;53.002;6.488;2022-07-25T06:17:24;10.77;;;9.68;;
54191;SDS011;40101;53.002;6.488;2022-07-25T06:19:50;11.45;;;10.35;;
54191;SDS011;40101;53.002;6.488;2022-07-25T06:22:16;11.23;;;10.13;;
54191;SDS011;40101;53.002;6.488;2022-07-25T06:24:43;12.63;;;10.60;;
54191;SDS011;40101;53.002;6.488;2022-07-25T06:27:09;11.18;;;10.07;;
54191;SDS011;40101;53.002;6.488;2022-07-25T06:29:36;11.38;;;10.10;;
54191;SDS011;40101;53.002;6.488;2022-07-25T06:32:01;10.82;;;9.73;;
54191;SDS011;40101;53.002;6.488;2022-07-25T06:34:27;12.65;;;10.18;;
54191;SDS011;40101;53.002;6.488;2022-07-25T06:36:53;15.45;;;10.30;;
54191;SDS011;40101;53.002;6.488;2022-07-25T06:39:18;11.43;;;9.98;;
54191;SDS011;40101;53.002;6.488;2022-07-25T06:41:44;10.98;;;9.70;;
54191;SDS011;40101;53.002;6.488;2022-07-25T06:44:09;11.57;;;8.95;;
54191;SDS011;40101;53.002;6.488;2022-07-25T06:46:35;10.18;;;9.07;;
54191;SDS011;40101;53.002;6.488;2022-07-25T06:49:01;11.18;;;9.02;;
54191;SDS011;40101;53.002;6.488;2022-07-25T06:51:27;11.18;;;9.23;;
54191;SDS011;40101;53.002;6.488;2022-07-25T06:53:52;15.27;;;9.20;;
54191;SDS011;40101;53.002;6.488;2022-07-25T06:56:18;8.52;;;7.72;;
54191;SDS011;40101;53.002;6.488;2022-07-25T06:58:44;9.55;;;8.65;;
54191;SDS011;40101;53.002;6.488;2022-07-25T07:01:10;8.70;;;7.85;;
54191;SDS011;40101;53.002;6.488;2022-07-25T07:03:35;10.43;;;7.45;;
54191;SDS011;40101;53.002;6.488;2022-07-25T07:06:03;8.27;;;7.47;;
54191;SDS011;40101;53.002;6.488;2022-07-25T07:08:29;9.40;;;7.85;;
54191;SDS011;40101;53.002;6.488;2022-07-25T07:10:54;8.90;;;8.07;;
54191;SDS011;40101;53.002;6.488;2022-07-25T07:13:20;10.90;;;8.32;;
54191;SDS011;40101;53.002;6.488;2022-07-25T07:15:48;9.05;;;8.20;;
54191;SDS011;40101;53.002;6.488;2022-07-25T07:18:18;9.35;;;7.90;;
54191;SDS011;40101;53.002;6.488;2022-07-25T07:20:45;8.73;;;7.82;;
54191;SDS011;40101;53.002;6.488;2022-07-25T07:23:11;7.72;;;7.05;;
54191;SDS011;40101;53.002;6.488;2022-07-25T07:25:37;8.57;;;7.43;;
54191;SDS011;40101;53.002;6.488;2022-07-25T07:28:03;8.30;;;7.53;;
54191;SDS011;40101;53.002;6.488;2022-07-25T07:30:29;8.30;;;7.43;;
54191;SDS011;40101;53.002;6.488;2022-07-25T07:32:56;7.88;;;6.75;;
54191;SDS011;40101;53.002;6.488;2022-07-25T07:35:21;8.35;;;7.55;;
54191;SDS011;40101;53.002;6.488;2022-07-25T07:37:49;7.80;;;7.00;;
54191;SDS011;40101;53.002;6.488;2022-07-25T07:40:18;7.45;;;6.35;;
54191;SDS011;40101;53.002;6.488;2022-07-25T07:42:45;8.25;;;6.97;;
54191;SDS011;40101;53.002;6.488;2022-07-25T07:45:13;7.95;;;6.10;;
54191;SDS011;40101;53.002;6.488;2022-07-25T07:47:42;8.85;;;5.68;;
54191;SDS011;40101;53.002;6.488;2022-07-25T07:50:09;7.95;;;5.55;;
54191;SDS011;40101;53.002;6.488;2022-07-25T07:52:35;8.10;;;6.40;;
54191;SDS011;40101;53.002;6.488;2022-07-25T07:55:01;6.97;;;5.03;;
54191;SDS011;40101;53.002;6.488;2022-07-25T07:57:46;7.93;;;5.80;;
54191;SDS011;40101;53.002;6.488;2022-07-25T08:00:13;6.10;;;5.00;;
54191;SDS011;40101;53.002;6.488;2022-07-25T08:02:43;4.97;;;4.10;;
54191;SDS011;40101;53.002;6.488;2022-07-25T08:05:20;4.70;;;4.05;;
54191;SDS011;40101;53.002;6.488;2022-07-25T08:07:50;5.05;;;4.55;;
54191;SDS011;40101;53.002;6.488;2022-07-25T08:10:17;4.78;;;4.30;;
54191;SDS011;40101;53.002;6.488;2022-07-25T08:12:44;6.55;;;4.75;;
54191;SDS011;40101;53.002;6.488;2022-07-25T08:15:10;5.28;;;4.63;;
54191;SDS011;40101;53.002;6.488;2022-07-25T08:17:35;7.15;;;4.63;;
54191;SDS011;40101;53.002;6.488;2022-07-25T08:20:01;6.78;;;4.95;;
54191;SDS011;40101;53.002;6.488;2022-07-25T08:22:42;7.30;;;4.72;;
54191;SDS011;40101;53.002;6.488;2022-07-25T08:25:11;9.27;;;5.03;;
54191;SDS011;40101;53.002;6.488;2022-07-25T08:27:38;5.63;;;4.15;;
54191;SDS011;40101;53.002;6.488;2022-07-25T08:30:05;5.15;;;4.20;;
54191;SDS011;40101;53.002;6.488;2022-07-25T08:32:32;5.75;;;4.50;;
54191;SDS011;40101;53.002;6.488;2022-07-25T08:34:59;6.45;;;4.20;;
54191;SDS011;40101;53.002;6.488;2022-07-25T08:37:26;4.75;;;4.25;;
54191;SDS011;40101;53.002;6.488;2022-07-25T08:39:52;5.07;;;4.50;;
54191;SDS011;40101;53.002;6.488;2022-07-25T08:42:18;4.68;;;3.45;;
54191;SDS011;40101;53.002;6.488;2022-07-25T08:44:48;5.43;;;3.78;;
54191;SDS011;40101;53.002;6.488;2022-07-25T08:47:21;4.88;;;3.50;;
54191;SDS011;40101;53.002;6.488;2022-07-25T08:49:47;5.70;;;4.10;;
54191;SDS011;40101;53.002;6.488;2022-07-25T08:52:13;5.47;;;3.88;;
54191;SDS011;40101;53.002;6.488;2022-07-25T08:54:39;6.72;;;3.85;;
54191;SDS011;40101;53.002;6.488;2022-07-25T08:57:06;4.47;;;3.90;;
54191;SDS011;40101;53.002;6.488;2022-07-25T08:59:31;6.38;;;3.42;;
54191;SDS011;40101;53.002;6.488;2022-07-25T09:01:58;3.83;;;3.30;;
54191;SDS011;40101;53.002;6.488;2022-07-25T09:04:26;5.28;;;3.83;;
54191;SDS011;40101;53.002;6.488;2022-07-25T09:06:53;3.78;;;2.70;;
54191;SDS011;40101;53.002;6.488;2022-07-25T09:09:19;3.25;;;2.10;;
54191;SDS011;40101;53.002;6.488;2022-07-25T09:11:54;1.95;;;1.80;;
54191;SDS011;40101;53.002;6.488;2022-07-25T09:14:20;3.60;;;2.03;;
54191;SDS011;40101;53.002;6.488;2022-07-25T09:16:45;3.28;;;1.70;;
54191;SDS011;40101;53.002;6.488;2022-07-25T09:21:39;4.85;;;1.52;;
54191;SDS011;40101;53.002;6.488;2022-07-25T09:24:07;1.80;;;1.35;;
54191;SDS011;40101;53.002;6.488;2022-07-25T09:26:44;2.88;;;1.17;;
54191;SDS011;40101;53.002;6.488;2022-07-25T09:29:18;2.25;;;1.10;;
54191;SDS011;40101;53.002;6.488;2022-07-25T09:31:52;3.10;;;1.60;;
54191;SDS011;40101;53.002;6.488;2022-07-25T09:34:32;1.88;;;1.40;;
54191;SDS011;40101;53.002;6.488;2022-07-25T09:37:01;3.17;;;1.85;;
54191;SDS011;40101;53.002;6.488;2022-07-25T09:39:35;2.05;;;1.20;;
54191;SDS011;40101;53.002;6.488;2022-07-25T09:42:20;3.55;;;1.10;;
54191;SDS011;40101;53.002;6.488;2022-07-25T09:44:57;2.10;;;1.13;;
54191;SDS011;40101;53.002;6.488;2022-07-25T09:47:30;2.40;;;1.10;;
54191;SDS011;40101;53.002;6.488;2022-07-25T09:49:58;4.90;;;1.20;;
54191;SDS011;40101;53.002;6.488;2022-07-25T09:52:24;1.60;;;1.35;;
54191;SDS011;40101;53.002;6.488;2022-07-25T09:54:49;2.55;;;1.30;;
54191;SDS011;40101;53.002;6.488;2022-07-25T09:57:15;2.45;;;1.20;;
54191;SDS011;40101;53.002;6.488;2022-07-25T09:59:41;1.70;;;1.30;;
54191;SDS011;40101;53.002;6.488;2022-07-25T10:02:10;1.88;;;1.35;;
54191;SDS011;40101;53.002;6.488;2022-07-25T10:04:45;3.83;;;1.45;;
54191;SDS011;40101;53.002;6.488;2022-07-25T10:07:15;3.53;;;1.52;;
54191;SDS011;40101;53.002;6.488;2022-07-25T10:09:45;1.83;;;1.13;;
54191;SDS011;40101;53.002;6.488;2022-07-25T10:12:13;1.27;;;0.90;;
54191;SDS011;40101;53.002;6.488;2022-07-25T10:14:51;1.80;;;1.23;;
54191;SDS011;40101;53.002;6.488;2022-07-25T10:17:35;1.77;;;0.90;;
54191;SDS011;40101;53.002;6.488;2022-07-25T10:20:02;2.47;;;1.13;;
54191;SDS011;40101;53.002;6.488;2022-07-25T10:25:09;2.33;;;0.80;;
54191;SDS011;40101;53.002;6.488;2022-07-25T10:27:42;2.38;;;0.95;;
54191;SDS011;40101;53.002;6.488;2022-07-25T10:30:22;1.33;;;0.70;;
54191;SDS011;40101;53.002;6.488;2022-07-25T10:32:56;2.22;;;1.50;;
54191;SDS011;40101;53.002;6.488;2022-07-25T10:35:23;1.60;;;0.90;;
54191;SDS011;40101;53.002;6.488;2022-07-25T10:37:51;4.35;;;0.90;;
54191;SDS011;40101;53.002;6.488;2022-07-25T10:40:27;1.77;;;1.10;;
54191;SDS011;40101;53.002;6.488;2022-07-25T10:43:07;1.90;;;0.70;;
54191;SDS011;40101;53.002;6.488;2022-07-25T10:45:40;4.75;;;1.10;;
54191;SDS011;40101;53.002;6.488;2022-07-25T10:48:09;3.03;;;0.90;;
54191;SDS011;40101;53.002;6.488;2022-07-25T10:50:56;2.10;;;0.82;;
54191;SDS011;40101;53.002;6.488;2022-07-25T10:53:36;1.33;;;0.80;;
54191;SDS011;40101;53.002;6.488;2022-07-25T10:56:09;4.82;;;1.40;;
54191;SDS011;40101;53.002;6.488;2022-07-25T11:01:10;6.50;;;1.52;;
54191;SDS011;40101;53.002;6.488;2022-07-25T11:03:38;5.72;;;1.67;;
54191;SDS011;40101;53.002;6.488;2022-07-25T11:06:09;4.03;;;1.90;;
54191;SDS011;40101;53.002;6.488;2022-07-25T11:08:40;5.45;;;1.40;;
54191;SDS011;40101;53.002;6.488;2022-07-25T11:11:07;6.90;;;1.77;;
54191;SDS011;40101;53.002;6.488;2022-07-25T11:13:37;2.88;;;1.50;;
54191;SDS011;40101;53.002;6.488;2022-07-25T11:16:04;5.50;;;1.70;;
54191;SDS011;40101;53.002;6.488;2022-07-25T11:18:31;5.28;;;1.50;;
54191;SDS011;40101;53.002;6.488;2022-07-25T11:21:02;1.85;;;1.13;;
54191;SDS011;40101;53.002;6.488;2022-07-25T11:23:29;3.35;;;1.65;;
54191;SDS011;40101;53.002;6.488;2022-07-25T11:26:10;4.68;;;1.63;;
54191;SDS011;40101;53.002;6.488;2022-07-25T11:28:41;5.85;;;1.67;;
54191;SDS011;40101;53.002;6.488;2022-07-25T11:31:08;6.40;;;1.70;;
54191;SDS011;40101;53.002;6.488;2022-07-25T11:33:35;5.38;;;1.27;;
54191;SDS011;40101;53.002;6.488;2022-07-25T11:36:01;4.57;;;1.35;;
54191;SDS011;40101;53.002;6.488;2022-07-25T11:38:28;5.28;;;2.08;;
54191;SDS011;40101;53.002;6.488;2022-07-25T11:40:54;5.68;;;1.85;;
54191;SDS011;40101;53.002;6.488;2022-07-25T11:43:22;6.32;;;1.58;;
54191;SDS011;40101;53.002;6.488;2022-07-25T11:48:31;3.55;;;1.60;;
54191;SDS011;40101;53.002;6.488;2022-07-25T11:51:07;5.97;;;1.65;;
54191;SDS011;40101;53.002;6.488;2022-07-25T11:53:47;4.25;;;1.33;;
54191;SDS011;40101;53.002;6.488;2022-07-25T11:56:15;4.00;;;1.50;;
54191;SDS011;40101;53.002;6.488;2022-07-25T11:58:58;5.10;;;2.05;;
54191;SDS011;40101;53.002;6.488;2022-07-25T12:01:24;7.32;;;2.08;;
54191;SDS011;40101;53.002;6.488;2022-07-25T12:04:06;7.72;;;1.65;;
54191;SDS011;40101;53.002;6.488;2022-07-25T12:06:33;4.15;;;1.73;;
54191;SDS011;40101;53.002;6.488;2022-07-25T12:09:08;5.97;;;1.70;;
54191;SDS011;40101;53.002;6.488;2022-07-25T12:11:41;3.83;;;1.30;;
54191;SDS011;40101;53.002;6.488;2022-07-25T12:14:08;4.25;;;1.38;;
54191;SDS011;40101;53.002;6.488;2022-07-25T12:16:34;5.05;;;1.20;;
54191;SDS011;40101;53.002;6.488;2022-07-25T12:19:01;6.97;;;1.60;;
54191;SDS011;40101;53.002;6.488;2022-07-25T12:21:27;3.80;;;1.33;;
54191;SDS011;40101;53.002;6.488;2022-07-25T12:23:53;2.55;;;1.20;;
54191;SDS011;40101;53.002;6.488;2022-07-25T12:26:18;5.00;;;1.38;;
54191;SDS011;40101;53.002;6.488;2022-07-25T12:28:44;8.07;;;1.35;;
54191;SDS011;40101;53.002;6.488;2022-07-25T12:31:09;5.72;;;1.40;;
54191;SDS011;40101;53.002;6.488;2022-07-25T12:33:35;6.05;;;1.45;;
54191;SDS011;40101;53.002;6.488;2022-07-25T12:36:02;3.88;;;1.33;;
54191;SDS011;40101;53.002;6.488;2022-07-25T12:38:28;4.65;;;1.25;;
54191;SDS011;40101;53.002;6.488;2022-07-25T12:40:54;5.38;;;1.38;;
54191;SDS011;40101;53.002;6.488;2022-07-25T12:43:20;3.17;;;1.40;;
54191;SDS011;40101;53.002;6.488;2022-07-25T12:45:46;2.30;;;1.10;;
54191;SDS011;40101;53.002;6.488;2022-07-25T12:48:12;2.58;;;0.80;;
54191;SDS011;40101;53.002;6.488;2022-07-25T12:50:39;6.03;;;1.40;;
54191;SDS011;40101;53.002;6.488;2022-07-25T12:53:06;5.57;;;1.27;;
54191;SDS011;40101;53.002;6.488;2022-07-25T12:55:31;2.92;;;1.02;;
54191;SDS011;40101;53.002;6.488;2022-07-25T12:57:57;2.55;;;1.40;;
54191;SDS011;40101;53.002;6.488;2022-07-25T13:00:23;4.50;;;1.25;;
54191;SDS011;40101;53.002;6.488;2022-07-25T13:02:49;3.83;;;1.40;;
54191;SDS011;40101;53.002;6.488;2022-07-25T13:05:16;5.40;;;1.88;;
54191;SDS011;40101;53.002;6.488;2022-07-25T13:07:41;6.95;;;1.50;;
54191;SDS011;40101;53.002;6.488;2022-07-25T13:10:07;5.15;;;1.63;;
54191;SDS011;40101;53.002;6.488;2022-07-25T13:12:34;6.53;;;1.52;;
54191;SDS011;40101;53.002;6.488;2022-07-25T13:15:00;4.13;;;1.25;;
54191;SDS011;40101;53.002;6.488;2022-07-25T13:17:26;4.85;;;1.65;;
54191;SDS011;40101;53.002;6.488;2022-07-25T13:19:52;4.85;;;1.25;;
54191;SDS011;40101;53.002;6.488;2022-07-25T13:22:17;5.88;;;1.55;;
54191;SDS011;40101;53.002;6.488;2022-07-25T13:24:43;5.63;;;1.67;;
54191;SDS011;40101;53.002;6.488;2022-07-25T13:27:08;5.85;;;1.58;;
54191;SDS011;40101;53.002;6.488;2022-07-25T13:29:34;5.47;;;1.50;;
54191;SDS011;40101;53.002;6.488;2022-07-25T13:32:00;2.53;;;1.40;;
54191;SDS011;40101;53.002;6.488;2022-07-25T13:34:26;4.03;;;1.20;;
54191;SDS011;40101;53.002;6.488;2022-07-25T13:36:52;5.55;;;1.40;;
54191;SDS011;40101;53.002;6.488;2022-07-25T13:39:17;4.40;;;1.35;;
54191;SDS011;40101;53.002;6.488;2022-07-25T13:41:46;5.85;;;1.63;;
54191;SDS011;40101;53.002;6.488;2022-07-25T13:44:12;5.90;;;1.98;;
54191;SDS011;40101;53.002;6.488;2022-07-25T13:46:39;4.88;;;1.40;;
54191;SDS011;40101;53.002;6.488;2022-07-25T13:49:05;5.03;;;1.85;;
54191;SDS011;40101;53.002;6.488;2022-07-25T13:51:31;5.45;;;1.50;;
54191;SDS011;40101;53.002;6.488;2022-07-25T13:53:56;4.47;;;1.20;;
54191;SDS011;40101;53.002;6.488;2022-07-25T13:56:22;4.57;;;1.48;;
54191;SDS011;40101;53.002;6.488;2022-07-25T13:58:48;4.85;;;1.42;;
54191;SDS011;40101;53.002;6.488;2022-07-25T14:01:13;5.80;;;1.80;;
54191;SDS011;40101;53.002;6.488;2022-07-25T14:03:39;4.28;;;1.33;;
54191;SDS011;40101;53.002;6.488;2022-07-25T14:06:07;5.00;;;1.80;;
54191;SDS011;40101;53.002;6.488;2022-07-25T14:08:34;5.25;;;1.90;;
54191;SDS011;40101;53.002;6.488;2022-07-25T14:10:59;8.00;;;2.10;;
54191;SDS011;40101;53.002;6.488;2022-07-25T14:13:25;5.05;;;1.88;;
54191;SDS011;40101;53.002;6.488;2022-07-25T14:15:51;7.70;;;2.00;;
54191;SDS011;40101;53.002;6.488;2022-07-25T14:18:16;9.27;;;2.45;;
54191;SDS011;40101;53.002;6.488;2022-07-25T14:20:42;6.30;;;1.83;;
54191;SDS011;40101;53.002;6.488;2022-07-25T14:23:07;10.27;;;2.85;;
54191;SDS011;40101;53.002;6.488;2022-07-25T14:25:33;9.38;;;2.33;;
54191;SDS011;40101;53.002;6.488;2022-07-25T14:27:59;7.85;;;2.13;;
54191;SDS011;40101;53.002;6.488;2022-07-25T14:30:25;7.03;;;2.08;;
54191;SDS011;40101;53.002;6.488;2022-07-25T14:32:51;6.85;;;2.15;;
54191;SDS011;40101;53.002;6.488;2022-07-25T14:35:16;4.95;;;2.00;;
54191;SDS011;40101;53.002;6.488;2022-07-25T14:37:42;7.50;;;1.63;;
54191;SDS011;40101;53.002;6.488;2022-07-25T14:40:08;7.50;;;1.70;;
54191;SDS011;40101;53.002;6.488;2022-07-25T14:42:35;4.47;;;1.65;;
54191;SDS011;40101;53.002;6.488;2022-07-25T14:45:02;8.00;;;2.00;;
54191;SDS011;40101;53.002;6.488;2022-07-25T14:47:28;12.90;;;2.20;;
54191;SDS011;40101;53.002;6.488;2022-07-25T14:49:54;3.60;;;1.20;;
54191;SDS011;40101;53.002;6.488;2022-07-25T14:52:19;5.47;;;1.90;;